Time;durP1;ratioP1;P1;durP2;ratioP2;P2;SDS_P1;SDS_P2;PMS_P1;PMS_P2;Temp;Humidity;BMP_temperature;BMP_pressure;BME280_temperature;BME280_humidity;BME280_pressure;Samples;Min_cycle;Max_cycle;Signal;HPM_P1;HPM_P2
2021/07/26 00:10:04;;;;;;;6.37;1.43;;;23.80;99.90;;;;;;21027583;28;20195;-66
2021/07/26 00:20:10;;;;;;;0.87;0.87;;;23.80;99.90;;;;;;21108334;28;20236;-66
2021/07/26 00:30:17;;;;;;;1.17;0.63;;;23.90;99.90;;;;;;21116191;28;20194;-66
2021/07/26 00:40:24;;;;;;;1.27;0.90;;;23.90;99.90;;;;;;21121315;28;20239;-67
2021/07/26 00:50:30;;;;;;;1.83;1.20;;;24.00;99.90;;;;;;21121625;28;20274;-67
2021/07/26 01:00:33;;;;;;;0.70;0.70;;;23.90;99.90;;;;;;21094829;22;20236;-75
2021/07/26 01:10:39;;;;;;;2.13;0.67;;;23.90;99.90;;;;;;20966519;28;20203;-75
2021/07/26 01:20:44;;;;;;;2.27;0.80;;;23.90;99.90;;;;;;20952124;28;20988;-76
2021/07/26 01:30:49;;;;;;;2.33;1.50;;;23.80;99.90;;;;;;20948759;28;20869;-75
2021/07/26 01:40:57;;;;;;;0.80;0.80;;;23.90;99.90;;;;;;20949948;28;20228;-78
2021/07/26 01:51:03;;;;;;;2.07;1.33;;;23.80;99.90;;;;;;20948369;28;20204;-76
2021/07/26 02:01:08;;;;;;;0.70;0.70;;;23.80;99.90;;;;;;20935162;22;20573;-65
2021/07/26 02:11:12;;;;;;;0.70;0.70;;;23.80;99.90;;;;;;20780215;28;20687;-66
2021/07/26 02:21:17;;;;;;;1.00;0.80;;;23.80;99.90;;;;;;20781129;28;20692;-65
2021/07/26 02:31:21;;;;;;;1.93;0.90;;;23.80;99.90;;;;;;20778078;28;20208;-66
2021/07/26 02:41:26;;;;;;;1.43;1.10;;;23.80;99.90;;;;;;20779539;28;20222;-65
2021/07/26 02:51:30;;;;;;;3.13;0.87;;;23.80;99.90;;;;;;20778497;28;20210;-66
2021/07/26 03:01:35;;;;;;;2.70;0.97;;;23.80;99.90;;;;;;20779797;28;20584;-67
2021/07/26 03:11:39;;;;;;;0.47;0.47;;;23.70;99.90;;;;;;20778788;28;20198;-66
2021/07/26 03:22:27;;;;;;;1.80;0.93;;;23.80;99.90;;;;;;20775858;28;20225;-65
2021/07/26 03:32:33;;;;;;;1.23;1.10;;;23.80;99.90;;;;;;20757763;28;20692;-65
2021/07/26 03:42:38;;;;;;;0.60;0.60;;;23.70;99.90;;;;;;20761439;28;20712;-67
2021/07/26 03:52:50;;;;;;;0.93;0.70;;;23.50;99.90;;;;;;20776279;28;20198;-66
2021/07/26 04:02:59;;;;;;;1.83;1.50;;;23.30;99.90;;;;;;20780330;28;20236;-66
2021/07/26 04:13:05;;;;;;;0.70;0.70;;;23.20;99.90;;;;;;20792180;28;20651;-66
2021/07/26 04:23:09;;;;;;;1.63;1.17;;;23.20;99.90;;;;;;20790697;28;20579;-66
2021/07/26 04:33:15;;;;;;;2.83;1.13;;;23.30;99.90;;;;;;20791023;28;20583;-65
2021/07/26 04:43:18;;;;;;;0.80;0.80;;;23.50;99.90;;;;;;20786631;28;20233;-66
2021/07/26 04:53:23;;;;;;;0.93;0.93;;;23.50;99.90;;;;;;20788777;28;20233;-66
2021/07/26 05:03:27;;;;;;;2.03;1.60;;;23.70;99.90;;;;;;20785883;28;20493;-66
2021/07/26 05:13:32;;;;;;;2.77;0.97;;;23.70;99.90;;;;;;20785698;28;21033;-66
2021/07/26 05:23:35;;;;;;;4.57;1.30;;;23.80;99.90;;;;;;20765254;28;20230;-66
2021/07/26 05:33:41;;;;;;;2.30;1.20;;;23.80;99.90;;;;;;20781839;28;20213;-66
2021/07/26 05:43:45;;;;;;;2.97;1.53;;;23.90;99.90;;;;;;20782506;28;20222;-65
2021/07/26 05:53:51;;;;;;;3.95;1.27;;;24.20;99.90;;;;;;20782253;28;20214;-66
2021/07/26 06:03:54;;;;;;;1.88;1.55;;;24.70;99.90;;;;;;20762154;28;20632;-66
2021/07/26 06:13:59;;;;;;;1.65;1.10;;;24.80;99.90;;;;;;20778071;28;20198;-67
2021/07/26 06:24:03;;;;;;;2.63;1.38;;;25.10;99.90;;;;;;20696361;28;20230;-66
2021/07/26 06:34:08;;;;;;;0.45;0.45;;;25.20;99.90;;;;;;20696414;28;20222;-67
2021/07/26 06:44:11;;;;;;;1.65;1.08;;;25.30;99.90;;;;;;20752512;28;20982;-67
2021/07/26 06:54:16;;;;;;;8.70;1.27;;;25.70;99.90;;;;;;20774899;28;20201;-66
2021/07/26 07:04:20;;;;;;;1.77;0.93;;;25.90;99.90;;;;;;20774443;28;20241;-68
2021/07/26 07:14:25;;;;;;;3.97;2.15;;;26.50;99.90;;;;;;20767954;28;20206;-67
2021/07/26 07:24:28;;;;;;;3.80;1.63;;;26.30;99.90;;;;;;20765239;28;20426;-66
2021/07/26 07:34:33;;;;;;;4.55;1.33;;;26.30;99.90;;;;;;20771127;28;20692;-66
2021/07/26 07:44:37;;;;;;;6.80;1.65;;;26.50;99.90;;;;;;20771513;28;20244;-67
2021/07/26 07:54:42;;;;;;;1.60;1.50;;;26.70;99.90;;;;;;20745220;28;20198;-66
2021/07/26 08:04:45;;;;;;;1.40;0.75;;;27.10;99.90;;;;;;20713909;28;20235;-65
2021/07/26 08:14:59;;;;;;;1.80;1.42;;;27.90;99.90;;;;;;20747029;28;20648;-67
2021/07/26 08:25:05;;;;;;;4.00;1.63;;;28.00;99.90;;;;;;20701805;28;20227;-66
2021/07/26 08:35:11;;;;;;;2.15;1.15;;;27.90;99.90;;;;;;20770262;28;20250;-66
2021/07/26 08:45:15;;;;;;;1.92;1.58;;;27.60;99.90;;;;;;20765605;28;20546;-65
2021/07/26 08:55:21;;;;;;;1.73;1.40;;;27.80;99.90;;;;;;20782196;28;20199;-66
2021/07/26 09:05:25;;;;;;;1.45;1.10;;;27.70;99.90;;;;;;20764433;28;20246;-66
2021/07/26 09:15:31;;;;;;;2.03;1.67;;;27.80;99.90;;;;;;20749611;28;20464;-68
2021/07/26 09:25:36;;;;;;;2.78;1.85;;;27.70;99.90;;;;;;20778562;28;20383;-67
2021/07/26 09:35:41;;;;;;;1.15;1.02;;;27.40;99.90;;;;;;20780592;28;20195;-67
2021/07/26 09:45:44;;;;;;;1.88;1.13;;;27.20;99.90;;;;;;20778012;28;20595;-66
2021/07/26 09:55:51;;;;;;;4.05;2.17;;;27.40;99.90;;;;;;20778579;28;20202;-67
2021/07/26 10:05:55;;;;;;;2.95;1.33;;;27.90;99.90;;;;;;20778705;28;20308;-67
2021/07/26 10:16:01;;;;;;;4.35;1.95;;;27.80;99.90;;;;;;20758129;28;20628;-66
2021/07/26 10:26:06;;;;;;;4.43;1.95;;;28.20;99.90;;;;;;20776936;28;20771;-67
2021/07/26 10:36:11;;;;;;;3.90;0.98;;;28.30;99.90;;;;;;20773386;28;20198;-68
2021/07/26 10:46:15;;;;;;;3.97;2.28;;;27.70;99.90;;;;;;20774751;28;20508;-68
2021/07/26 10:56:20;;;;;;;6.65;1.33;;;27.20;99.90;;;;;;20770921;28;20323;-67
2021/07/26 11:07:05;;;;;;;2.35;1.48;;;27.10;99.90;;;;;;20773045;28;20249;-68
2021/07/26 11:17:11;;;;;;;0.55;0.52;;;26.90;99.90;;;;;;20734332;28;20198;-66
2021/07/26 11:27:16;;;;;;;1.95;0.70;;;27.70;99.90;;;;;;20770779;28;20236;-66
2021/07/26 11:37:29;;;;;;;1.20;1.10;;;27.90;99.90;;;;;;20773642;28;20205;-66
2021/07/26 11:47:35;;;;;;;1.70;1.10;;;27.30;99.90;;;;;;20770106;28;20898;-67
2021/07/26 11:57:55;;;;;;;1.80;1.35;;;27.90;99.90;;;;;;20769635;28;20278;-66
2021/07/26 12:07:59;;;;;;;0.85;0.70;;;28.20;99.90;;;;;;20770078;28;20638;-66
2021/07/26 12:18:06;;;;;;;0.95;0.75;;;28.00;99.90;;;;;;20770390;28;20202;-66
2021/07/26 12:28:09;;;;;;;1.95;0.95;;;28.50;99.90;;;;;;20780106;28;20775;-66
2021/07/26 12:38:19;;;;;;;2.35;1.73;;;29.10;99.90;;;;;;20784512;28;20568;-66
2021/07/26 12:48:24;;;;;;;3.28;1.50;;;31.80;99.90;;;;;;20784036;28;20226;-66
2021/07/26 12:58:30;;;;;;;1.65;1.52;;;32.10;99.90;;;;;;20784162;28;20504;-65
2021/07/26 13:08:34;;;;;;;2.33;1.42;;;31.20;99.90;;;;;;20782607;28;20230;-66
2021/07/26 13:18:39;;;;;;;2.95;2.35;;;29.70;99.90;;;;;;20780534;28;20202;-66
2021/07/26 13:28:43;;;;;;;4.75;1.65;;;29.80;99.90;;;;;;20782393;28;20489;-66
2021/07/26 13:38:49;;;;;;;3.20;1.58;;;29.60;99.90;;;;;;20777620;28;20884;-67
2021/07/26 13:48:52;;;;;;;3.58;1.85;;;30.10;99.90;;;;;;20781119;28;20639;-67
2021/07/26 13:58:57;;;;;;;3.58;1.95;;;30.10;99.90;;;;;;20777560;28;20198;-65
2021/07/26 14:09:01;;;;;;;3.35;1.73;;;32.10;99.90;;;;;;20777278;28;20281;-63
2021/07/26 14:19:08;;;;;;;1.73;1.33;;;32.00;99.90;;;;;;20776105;28;20198;-63
2021/07/26 14:29:12;;;;;;;5.55;1.60;;;32.50;99.90;;;;;;20776571;28;20591;-63
2021/07/26 14:39:19;;;;;;;3.13;1.98;;;33.40;99.90;;;;;;20775059;28;20237;-64
2021/07/26 14:49:22;;;;;;;1.25;1.10;;;34.70;99.90;;;;;;20772496;28;20723;-64
2021/07/26 14:59:28;;;;;;;2.95;1.30;;;36.00;99.90;;;;;;20773878;28;20210;-66
2021/07/26 15:09:31;;;;;;;1.60;1.50;;;34.10;99.90;;;;;;20773585;28;20252;-65
2021/07/26 15:19:36;;;;;;;1.77;1.48;;;34.60;99.90;;;;;;20774468;28;20194;-67
2021/07/26 15:29:41;;;;;;;4.45;1.13;;;34.50;99.90;;;;;;20771829;28;20236;-65
2021/07/26 15:39:47;;;;;;;2.95;1.60;;;31.50;99.90;;;;;;20774553;28;20194;-66
2021/07/26 15:49:50;;;;;;;1.55;0.88;;;30.10;99.90;;;;;;20770675;28;20229;-64
2021/07/26 15:59:55;;;;;;;1.83;1.48;;;29.20;99.90;;;;;;20780018;28;20218;-64
2021/07/26 16:09:59;;;;;;;1.95;1.70;;;29.20;99.90;;;;;;20783663;28;20319;-65
2021/07/26 16:20:06;;;;;;;3.08;1.50;;;28.60;99.90;;;;;;20785147;28;20202;-64
2021/07/26 16:30:14;;;;;;;2.22;0.90;;;28.40;99.90;;;;;;20783159;28;20225;-65
2021/07/26 16:40:19;;;;;;;2.33;1.45;;;28.00;99.90;;;;;;20783936;28;20233;-67
2021/07/26 16:50:22;;;;;;;5.35;2.17;;;27.60;99.90;;;;;;20786680;28;20234;-66
2021/07/26 17:00:29;;;;;;;11.98;1.98;;;27.70;99.90;;;;;;20781842;28;20672;-66
2021/07/26 17:10:32;;;;;;;4.53;4.05;;;27.40;99.90;;;;;;20783530;28;20679;-66
2021/07/26 17:20:38;;;;;;;2.55;1.15;;;27.30;99.90;;;;;;20780479;28;20202;-68
2021/07/26 17:30:42;;;;;;;3.90;2.00;;;27.60;99.90;;;;;;20782865;28;20239;-66
2021/07/26 17:40:47;;;;;;;5.20;2.63;;;30.20;99.90;;;;;;20778580;28;20198;-66
2021/07/26 17:50:51;;;;;;;2.53;1.25;;;28.40;99.90;;;;;;20779965;28;20421;-65
2021/07/26 18:00:56;;;;;;;2.50;1.55;;;27.40;99.90;;;;;;20777814;28;20233;-66
2021/07/26 18:11:00;;;;;;;2.25;1.05;;;27.30;99.90;;;;;;20777336;28;20194;-66
2021/07/26 18:21:06;;;;;;;2.35;1.63;;;27.10;99.90;;;;;;20775976;28;20202;-66
2021/07/26 18:31:09;;;;;;;2.85;2.15;;;27.10;99.90;;;;;;20777232;28;20198;-66
2021/07/26 18:41:15;;;;;;;8.77;1.40;;;27.20;99.90;;;;;;20775769;28;20190;-67
2021/07/26 18:51:21;;;;;;;3.50;1.17;;;27.00;99.90;;;;;;20775283;28;20209;-66
2021/07/26 19:01:26;;;;;;;3.13;1.60;;;26.60;99.90;;;;;;20776127;28;20799;-65
2021/07/26 19:11:30;;;;;;;1.75;1.13;;;26.10;99.90;;;;;;20773051;28;20193;-66
2021/07/26 19:21:35;;;;;;;1.55;1.23;;;26.00;99.90;;;;;;20768386;28;20233;-65
2021/07/26 19:31:39;;;;;;;4.63;1.50;;;25.80;99.90;;;;;;20750256;28;20197;-64
2021/07/26 19:41:44;;;;;;;4.05;1.88;;;25.60;99.90;;;;;;20788945;28;20740;-65
2021/07/26 19:51:48;;;;;;;2.28;1.08;;;25.40;99.90;;;;;;20786169;28;20558;-64
2021/07/26 20:01:53;;;;;;;20.52;1.23;;;25.30;99.90;;;;;;20786322;28;20705;-64
2021/07/26 20:11:56;;;;;;;3.40;1.30;;;25.40;99.90;;;;;;20784883;28;20226;-64
2021/07/26 20:22:01;;;;;;;0.85;0.80;;;25.30;99.90;;;;;;20821316;28;20234;-67
2021/07/26 20:32:06;;;;;;;3.38;1.05;;;25.40;99.90;;;;;;20859657;28;20191;-65
2021/07/26 20:42:11;;;;;;;2.03;1.65;;;25.40;99.90;;;;;;20785151;28;20229;-67
2021/07/26 20:52:14;;;;;;;5.65;1.95;;;25.40;99.90;;;;;;20782859;28;20206;-65
2021/07/26 21:02:20;;;;;;;2.28;0.63;;;25.30;99.90;;;;;;20783944;28;20233;-67
2021/07/26 21:12:23;;;;;;;1.85;0.95;;;25.30;99.90;;;;;;20784651;28;20209;-65
2021/07/26 21:22:28;;;;;;;1.75;1.00;;;25.30;99.90;;;;;;20782384;28;20692;-67
2021/07/26 21:32:32;;;;;;;5.32;0.88;;;25.30;99.90;;;;;;20780915;28;20205;-65
2021/07/26 21:42:37;;;;;;;1.45;1.33;;;25.40;99.90;;;;;;20762906;28;20220;-64
2021/07/26 21:52:41;;;;;;;1.55;0.82;;;25.40;99.90;;;;;;20780903;28;20198;-66
2021/07/26 22:02:49;;;;;;;2.00;1.00;;;25.20;99.90;;;;;;20779070;28;20245;-64
2021/07/26 22:12:52;;;;;;;1.15;0.50;;;25.00;99.90;;;;;;20778846;28;20197;-65
2021/07/26 22:22:57;;;;;;;1.27;1.20;;;24.80;99.90;;;;;;20776363;28;20229;-64
2021/07/26 22:33:01;;;;;;;2.80;0.85;;;24.70;99.90;;;;;;20778073;28;20198;-65
2021/07/26 22:43:06;;;;;;;2.80;1.33;;;24.70;99.90;;;;;;20775854;28;20229;-67
2021/07/26 22:53:09;;;;;;;4.10;1.48;;;24.40;99.90;;;;;;20777993;28;20198;-67
2021/07/26 23:03:15;;;;;;;4.28;1.60;;;24.30;99.90;;;;;;20733487;28;20310;-67
2021/07/26 23:13:19;;;;;;;1.30;1.17;;;24.20;99.90;;;;;;20731955;28;20653;-67
2021/07/26 23:23:24;;;;;;;1.23;0.80;;;24.10;99.90;;;;;;20699139;28;20238;-67
2021/07/26 23:33:27;;;;;;;2.30;0.67;;;23.90;99.90;;;;;;20712561;28;20552;-67
2021/07/26 23:43:33;;;;;;;1.63;0.60;;;23.70;99.90;;;;;;20773038;28;20316;-66
2021/07/26 23:53:37;;;;;;;5.10;1.43;;;23.30;99.90;;;;;;20772324;28;20660;-66
